Time;durP1;ratioP1;P1;durP2;ratioP2;P2;SDS_P1;SDS_P2;PMS_P1;PMS_P2;Temp;Humidity;BMP_temperature;BMP_pressure;BME280_temperature;BME280_humidity;BME280_pressure;Samples;Min_cycle;Max_cycle;Signal;HPM_P1;HPM_P2
2022/12/26 00:01:26;;;;;;;41.95;16.85;;;;;;;7.18;100.00;101069.59;5055001;28;20394;-81
2022/12/26 00:03:51;;;;;;;36.83;16.45;;;;;;;7.18;100.00;101069.59;5055508;28;20389;-81
2022/12/26 00:06:23;;;;;;;40.58;17.23;;;;;;;7.15;100.00;101068.03;5054418;28;20457;-82
2022/12/26 00:08:49;;;;;;;38.88;16.05;;;;;;;7.16;100.00;101074.16;5054650;28;20106;-81
2022/12/26 00:11:15;;;;;;;36.40;15.25;;;;;;;7.17;100.00;101070.56;5054815;28;20063;-81
2022/12/26 00:13:41;;;;;;;38.22;15.20;;;;;;;7.18;100.00;101073.09;5054487;28;20028;-82
2022/12/26 00:16:15;;;;;;;31.63;14.00;;;;;;;7.20;100.00;101081.75;5054360;28;20057;-80
2022/12/26 00:18:41;;;;;;;32.88;14.07;;;;;;;7.20;100.00;101078.28;5053840;28;20029;-81
2022/12/26 00:21:08;;;;;;;33.67;14.48;;;;;;;7.19;100.00;101071.28;5054309;28;20028;-81
2022/12/26 00:23:35;;;;;;;34.30;15.32;;;;;;;7.18;100.00;101080.19;5053404;28;20029;-81
2022/12/26 00:26:05;;;;;;;40.40;16.33;;;;;;;7.16;100.00;101079.47;5054576;28;20037;-81
2022/12/26 00:28:30;;;;;;;35.38;15.85;;;;;;;7.11;100.00;101079.78;5053972;28;20453;-80
2022/12/26 00:30:56;;;;;;;39.50;16.52;;;;;;;7.08;100.00;101095.88;5052670;28;20033;-81
2022/12/26 00:33:21;;;;;;;44.33;18.30;;;;;;;7.07;100.00;101097.66;5053149;28;20040;-81
2022/12/26 00:35:47;;;;;;;44.95;18.33;;;;;;;7.05;100.00;101099.59;5053632;28;20029;-83
2022/12/26 00:38:12;;;;;;;40.67;17.50;;;;;;;7.06;100.00;101084.56;5054113;28;20400;-81
2022/12/26 00:40:42;;;;;;;40.63;17.45;;;;;;;7.05;100.00;101083.72;5053530;28;20684;-81
2022/12/26 00:43:08;;;;;;;42.88;18.23;;;;;;;7.03;100.00;101069.75;5054551;28;20115;-82
2022/12/26 00:45:33;;;;;;;49.65;18.45;;;;;;;7.04;100.00;101075.88;5053961;28;20040;-82
2022/12/26 00:47:59;;;;;;;45.28;17.27;;;;;;;7.05;100.00;101082.88;5053080;28;20033;-81
2022/12/26 00:50:24;;;;;;;46.83;17.83;;;;;;;7.03;100.00;101079.47;5052502;28;20029;-82
2022/12/26 00:52:49;;;;;;;39.67;17.10;;;;;;;7.00;100.00;101066.47;5050831;28;20044;-80
2022/12/26 00:55:15;;;;;;;43.03;17.33;;;;;;;6.99;100.00;101064.81;5050993;28;20029;-82
2022/12/26 00:57:40;;;;;;;44.47;17.10;;;;;;;7.01;100.00;101055.78;5052251;28;20481;-80
2022/12/26 01:00:06;;;;;;;41.63;17.52;;;;;;;6.96;100.00;101068.50;5052715;28;20112;-82
2022/12/26 01:02:38;;;;;;;36.92;16.77;;;;;;;6.95;100.00;101073.91;5052492;28;20048;-81
2022/12/26 01:05:05;;;;;;;43.50;16.98;;;;;;;6.94;100.00;101075.72;5052637;28;20151;-81
2022/12/26 01:07:35;;;;;;;42.05;16.92;;;;;;;6.91;100.00;101064.50;5052625;28;20044;-81
2022/12/26 01:10:03;;;;;;;42.92;16.27;;;;;;;6.90;100.00;101058.38;5052471;28;20029;-80
2022/12/26 01:12:29;;;;;;;40.75;16.50;;;;;;;6.89;100.00;101078.66;5052331;28;20245;-82
2022/12/26 01:14:55;;;;;;;40.45;15.75;;;;;;;6.89;100.00;101076.03;5051964;28;20041;-82
2022/12/26 01:17:20;;;;;;;44.90;17.25;;;;;;;6.87;100.00;101070.00;5052377;28;20044;-81
2022/12/26 01:19:46;;;;;;;45.63;16.55;;;;;;;6.89;100.00;101072.53;5054805;28;20389;-81
2022/12/26 01:22:11;;;;;;;38.67;16.02;;;;;;;6.88;100.00;101069.06;5056019;28;20128;-81
2022/12/26 01:24:36;;;;;;;42.25;15.95;;;;;;;6.88;100.00;101066.41;5055911;28;20029;-79
2022/12/26 01:27:02;;;;;;;39.15;16.45;;;;;;;6.88;100.00;101062.91;5056344;28;20461;-81
2022/12/26 01:29:27;;;;;;;41.28;16.63;;;;;;;6.82;100.00;101060.69;5056466;28;20041;-81
2022/12/26 01:31:53;;;;;;;38.95;16.17;;;;;;;6.79;100.00;101063.56;5055344;28;20075;-81
2022/12/26 01:34:18;;;;;;;38.80;15.82;;;;;;;6.72;100.00;101073.75;5056211;28;20461;-81
2022/12/26 01:36:43;;;;;;;36.63;16.30;;;;;;;6.67;100.00;101076.72;5055558;28;20389;-81
2022/12/26 01:39:09;;;;;;;36.70;15.05;;;;;;;6.58;100.00;101076.50;5056157;28;20043;-81
2022/12/26 01:41:35;;;;;;;36.13;15.13;;;;;;;6.51;100.00;101084.88;5055956;28;20504;-82
2022/12/26 01:44:04;;;;;;;36.97;15.55;;;;;;;6.48;100.00;101095.66;5055688;28;20033;-82
2022/12/26 01:46:44;;;;;;;30.48;14.57;;;;;;;6.48;100.00;101093.00;5055953;28;20033;-81
2022/12/26 01:49:22;;;;;;;30.87;13.87;;;;;;;6.47;100.00;101085.19;5055853;28;20032;-81
2022/12/26 01:51:52;;;;;;;34.88;14.88;;;;;;;6.45;100.00;101079.16;5055419;28;20028;-81
2022/12/26 01:54:18;;;;;;;32.15;14.45;;;;;;;6.46;100.00;101070.28;5055397;28;20033;-81
2022/12/26 01:56:45;;;;;;;36.92;15.20;;;;;;;6.43;100.00;101073.97;5055226;28;20036;-80
2022/12/26 01:59:18;;;;;;;33.58;15.05;;;;;;;6.42;100.00;101077.59;5055528;28;20025;-81
2022/12/26 02:01:46;;;;;;;32.38;15.30;;;;;;;6.46;100.00;101070.28;5055238;28;20061;-80
2022/12/26 02:07:03;;;;;;;31.15;14.10;;;;;;;6.45;100.00;101068.56;5055037;28;20044;-81
2022/12/26 02:09:28;;;;;;;29.80;13.70;;;;;;;6.46;100.00;101065.81;5055347;28;20058;-81
2022/12/26 02:12:19;;;;;;;27.30;12.90;;;;;;;6.45;100.00;101060.66;5054656;28;20029;-81
2022/12/26 02:14:45;;;;;;;25.02;12.05;;;;;;;6.46;100.00;101068.47;5054893;28;20045;-80
2022/12/26 02:17:10;;;;;;;26.27;12.57;;;;;;;6.48;100.00;101057.81;5055593;28;20486;-81
2022/12/26 02:20:11;;;;;;;25.60;12.63;;;;;;;6.55;100.00;101066.16;5055305;28;20033;-81
2022/12/26 02:22:52;;;;;;;27.20;12.63;;;;;;;6.57;100.00;101057.16;5055388;28;20029;-82
2022/12/26 02:25:51;;;;;;;30.42;13.18;;;;;;;6.62;100.00;101065.59;5055005;28;20485;-81
2022/12/26 02:28:48;;;;;;;28.48;14.20;;;;;;;6.67;100.00;101054.69;5055108;28;20025;-81
2022/12/26 02:31:35;;;;;;;27.77;13.35;;;;;;;6.68;100.00;101051.94;5051643;28;20048;-82
2022/12/26 02:34:14;;;;;;;29.80;14.23;;;;;;;6.71;100.00;101051.72;5054635;28;20060;-81
2022/12/26 02:37:04;;;;;;;33.70;14.35;;;;;;;6.74;100.00;101052.47;5054738;28;20040;-82
2022/12/26 02:39:41;;;;;;;27.80;14.00;;;;;;;6.74;100.00;101063.06;5054925;28;20033;-81
2022/12/26 02:42:34;;;;;;;29.05;14.65;;;;;;;6.69;100.00;101055.47;5054442;28;20359;-81
2022/12/26 02:48:31;;;;;;;27.35;13.35;;;;;;;6.55;100.00;101059.06;5054825;28;20067;-82
2022/12/26 03:14:40;;;;;;;28.77;13.32;;;;;;;6.37;100.00;101081.50;5054153;28;20117;-80
2022/12/26 03:17:18;;;;;;;25.50;12.43;;;;;;;6.41;100.00;101075.06;5053886;28;20037;-81
2022/12/26 03:19:59;;;;;;;24.88;11.52;;;;;;;6.41;100.00;101067.94;5054073;28;20053;-81
2022/12/26 03:22:39;;;;;;;26.88;12.40;;;;;;;6.35;100.00;101061.28;5053968;28;20060;-81
2022/12/26 03:27:54;;;;;;;23.55;11.68;;;;;;;6.23;100.00;101035.72;5053490;28;20542;-80
2022/12/26 03:34:15;;;;;;;20.42;10.63;;;;;;;6.19;100.00;101039.53;5053635;28;20110;-80
2022/12/26 03:35:50;;;;;;;21.45;10.73;;;;;;;6.13;100.00;101037.31;5053531;28;20457;-81
2022/12/26 03:38:20;;;;;;;22.38;10.73;;;;;;;6.11;100.00;101045.34;5053266;28;20146;-81
2022/12/26 04:19:22;;;;;;;14.90;6.65;;;;;;;5.95;100.00;101063.97;5052449;28;20067;-81
2022/12/26 04:44:41;;;;;;;10.18;4.40;;;;;;;6.02;100.00;101053.91;5052524;28;20115;-82
2022/12/26 04:47:06;;;;;;;10.30;4.53;;;;;;;5.99;100.00;101056.75;5052176;28;20033;-81
2022/12/26 04:52:53;;;;;;;7.63;3.95;;;;;;;5.97;100.00;101048.94;5052165;28;20047;-81
2022/12/26 04:55:15;;;;;;;8.40;4.05;;;;;;;5.95;100.00;101039.38;5051236;28;20048;-82
2022/12/26 04:57:40;;;;;;;5.18;3.35;;;;;;;5.93;100.00;101030.72;5052390;28;20045;-81
2022/12/26 05:00:06;;;;;;;8.07;3.80;;;;;;;5.89;100.00;101016.88;5051655;28;20036;-80
2022/12/26 05:10:43;;;;;;;7.68;3.42;;;;;;;5.95;100.00;101028.81;5052227;28;20443;-81
2022/12/26 05:13:08;;;;;;;7.65;3.00;;;;;;;5.98;100.00;101028.63;5051619;28;20033;-80
2022/12/26 05:28:40;;;;;;;4.68;3.17;;;;;;;5.99;100.00;101040.91;5051027;28;20021;-81
2022/12/26 05:29:24;;;;;;;6.20;2.80;;;;;;;6.06;100.00;101033.38;5052060;28;20127;-82
2022/12/26 05:31:49;;;;;;;7.25;3.17;;;;;;;6.07;100.00;101037.72;5050921;28;20052;-81
2022/12/26 05:34:19;;;;;;;4.15;2.60;;;;;;;6.02;100.00;101038.03;5051593;28;20025;-81
2022/12/26 05:36:49;;;;;;;4.47;2.63;;;;;;;6.00;100.00;101042.56;5052283;28;20044;-81
2022/12/26 05:39:15;;;;;;;6.35;2.80;;;;;;;6.03;100.00;101037.09;5051636;28;20029;-80
2022/12/26 05:41:40;;;;;;;4.88;2.85;;;;;;;6.06;100.00;101036.91;5052078;28;20033;-82
2022/12/26 05:44:06;;;;;;;6.80;2.58;;;;;;;6.08;100.00;101050.00;5051972;28;20078;-83
2022/12/26 05:46:33;;;;;;;5.20;2.88;;;;;;;6.05;100.00;101040.47;5050463;28;20036;-83
2022/12/26 05:48:58;;;;;;;7.03;2.92;;;;;;;6.04;100.00;101038.78;5051849;28;20052;-81
2022/12/26 05:51:24;;;;;;;5.25;2.55;;;;;;;6.06;100.00;101051.88;5051655;28;20446;-81
2022/12/26 05:53:50;;;;;;;5.15;3.28;;;;;;;6.05;100.00;101044.94;5051936;28;20465;-82
2022/12/26 05:56:17;;;;;;;7.53;3.10;;;;;;;6.02;100.00;101040.69;5052024;28;20112;-82
2022/12/26 05:58:44;;;;;;;10.27;3.40;;;;;;;6.06;100.00;101046.59;5051786;28;20029;-82
2022/12/26 06:01:12;;;;;;;6.80;3.05;;;;;;;6.14;100.00;101057.50;5051812;28;20041;-81
2022/12/26 06:03:40;;;;;;;7.72;3.30;;;;;;;6.22;100.00;101063.09;5051565;28;20029;-81
2022/12/26 06:06:06;;;;;;;3.58;3.00;;;;;;;6.29;100.00;101052.97;5053077;28;20021;-81
2022/12/26 06:08:31;;;;;;;5.05;2.78;;;;;;;6.38;100.00;101060.25;5054963;28;20044;-82
2022/12/26 06:10:57;;;;;;;7.95;3.30;;;;;;;6.41;100.00;101056.53;5055239;28;20086;-81
2022/12/26 06:13:23;;;;;;;6.22;3.10;;;;;;;6.38;100.00;101054.97;5054887;28;20039;-81
2022/12/26 06:15:48;;;;;;;7.07;3.00;;;;;;;6.38;100.00;101054.97;5053820;28;20123;-82
2022/12/26 06:18:14;;;;;;;7.88;3.28;;;;;;;6.38;100.00;101057.59;5055046;28;20029;-82
2022/12/26 06:20:39;;;;;;;6.20;3.40;;;;;;;6.41;100.00;101060.03;5054639;28;20033;-83
2022/12/26 06:23:05;;;;;;;5.55;3.17;;;;;;;6.46;100.00;101057.06;5055336;28;20428;-83
2022/12/26 06:25:30;;;;;;;8.15;3.72;;;;;;;6.49;100.00;101065.63;5054577;28;20076;-83
2022/12/26 06:27:55;;;;;;;5.90;3.00;;;;;;;6.50;100.00;101056.72;5055026;28;20029;-83
2022/12/26 06:30:21;;;;;;;4.60;3.50;;;;;;;6.50;100.00;101066.47;5054506;28;20116;-82
2022/12/26 06:32:46;;;;;;;7.60;3.40;;;;;;;6.51;100.00;101052.31;5054643;28;20131;-84
2022/12/26 06:35:11;;;;;;;6.20;3.38;;;;;;;6.51;100.00;101058.44;5054676;28;20059;-83
2022/12/26 06:37:37;;;;;;;6.85;3.50;;;;;;;6.53;100.00;101055.69;5054384;28;20029;-84
2022/12/26 06:40:04;;;;;;;6.95;3.15;;;;;;;6.51;100.00;101045.22;5054967;28;20453;-83
2022/12/26 06:42:29;;;;;;;5.38;3.58;;;;;;;6.53;100.00;101058.31;5054047;28;20546;-82
2022/12/26 06:44:54;;;;;;;4.07;3.00;;;;;;;6.53;100.00;101053.03;5054720;28;20061;-83
2022/12/26 06:47:20;;;;;;;9.23;3.53;;;;;;;6.54;100.00;101062.66;5054824;28;20469;-83
2022/12/26 06:49:45;;;;;;;7.50;3.15;;;;;;;6.53;100.00;101058.31;5054661;28;20469;-83
2022/12/26 06:52:12;;;;;;;6.47;3.08;;;;;;;6.53;100.00;101053.03;5054579;28;20037;-82
2022/12/26 06:54:38;;;;;;;7.13;2.75;;;;;;;6.55;100.00;101047.66;5054229;28;20033;-82
2022/12/26 06:57:03;;;;;;;5.80;3.17;;;;;;;6.57;100.00;101057.16;5054552;28;20074;-83
2022/12/26 06:59:29;;;;;;;9.55;3.08;;;;;;;6.59;100.00;101057.88;5054185;28;20106;-82
2022/12/26 07:01:54;;;;;;;7.05;2.83;;;;;;;6.66;100.00;101053.03;5054534;28;20045;-82
2022/12/26 07:04:19;;;;;;;11.68;3.58;;;;;;;6.73;100.00;101050.78;5053998;28;20029;-82
2022/12/26 07:06:45;;;;;;;6.97;2.80;;;;;;;6.69;100.00;101048.34;5052846;28;20033;-81
2022/12/26 07:09:15;;;;;;;7.03;2.97;;;;;;;6.63;100.00;101042.69;5054438;28;20060;-82
2022/12/26 07:11:43;;;;;;;5.88;3.03;;;;;;;6.64;100.00;101049.63;5053791;28;20024;-82
2022/12/26 07:14:09;;;;;;;11.00;2.80;;;;;;;6.65;100.00;101053.97;5054128;28;20064;-82
2022/12/26 07:16:36;;;;;;;7.90;3.30;;;;;;;6.74;100.00;101044.56;5053460;28;20056;-83
2022/12/26 07:19:02;;;;;;;8.93;2.85;;;;;;;6.79;100.00;101048.56;5053789;28;20389;-83
2022/12/26 07:21:27;;;;;;;6.78;2.72;;;;;;;6.86;100.00;101062.19;5053908;28;20039;-82
2022/12/26 07:23:54;;;;;;;8.88;2.83;;;;;;;6.87;100.00;101048.00;5053163;28;20033;-83
2022/12/26 07:26:19;;;;;;;14.95;3.10;;;;;;;6.87;100.00;101055.94;5054276;28;20047;-82
2022/12/26 07:28:45;;;;;;;8.70;2.80;;;;;;;6.90;100.00;101063.66;5053901;28;20373;-82
2022/12/26 07:31:18;;;;;;;8.10;2.95;;;;;;;6.89;100.00;101068.09;5054007;28;20481;-83
2022/12/26 07:33:49;;;;;;;5.80;2.92;;;;;;;6.91;100.00;101069.78;5052325;28;20119;-82
2022/12/26 07:36:16;;;;;;;7.60;2.75;;;;;;;6.94;100.00;101069.56;5053853;28;20122;-82
2022/12/26 07:38:41;;;;;;;6.95;2.67;;;;;;;6.93;100.00;101073.19;5053244;28;20047;-81
2022/12/26 07:43:51;;;;;;;9.30;2.83;;;;;;;7.05;100.00;101067.00;5053239;28;20067;-81
2022/12/26 07:46:16;;;;;;;7.28;2.30;;;;;;;7.09;100.00;101071.13;5053217;28;20465;-81
2022/12/26 07:48:42;;;;;;;10.65;3.05;;;;;;;7.10;100.00;101061.38;5053124;28;20529;-81
2022/12/26 07:51:07;;;;;;;6.82;2.55;;;;;;;7.09;100.00;101080.84;5053349;28;20040;-80
2022/12/26 07:53:33;;;;;;;5.97;2.10;;;;;;;7.15;100.00;101089.19;5053102;28;20032;-81
2022/12/26 07:55:59;;;;;;;13.32;2.50;;;;;;;7.19;100.00;101110.97;5053514;28;20462;-82
2022/12/26 07:58:24;;;;;;;8.50;2.50;;;;;;;7.19;100.00;101116.28;5053231;28;20389;-82
2022/12/26 08:00:50;;;;;;;9.02;2.50;;;;;;;7.19;100.00;101125.06;5053292;28;20040;-82
2022/12/26 08:03:15;;;;;;;8.40;2.30;;;;;;;7.17;100.00;101126.16;5053226;28;20083;-79
2022/12/26 08:05:46;;;;;;;6.00;2.15;;;;;;;7.13;100.00;101122.84;5052933;28;20065;-82
2022/12/26 08:08:12;;;;;;;5.10;1.95;;;;;;;7.11;100.00;101121.28;5053379;28;20527;-82
2022/12/26 08:10:37;;;;;;;7.30;2.75;;;;;;;7.09;100.00;101120.53;5052727;28;20057;-81
2022/12/26 08:13:03;;;;;;;10.55;2.20;;;;;;;7.01;100.00;101135.16;5053163;28;20445;-81
2022/12/26 08:15:28;;;;;;;10.07;2.28;;;;;;;7.02;100.00;101150.09;5053351;28;20029;-82
2022/12/26 08:17:53;;;;;;;7.90;1.80;;;;;;;6.96;100.00;101162.91;5052917;28;20082;-82
2022/12/26 08:20:19;;;;;;;10.35;2.03;;;;;;;6.94;100.00;101164.78;5053103;28;20040;-82
2022/12/26 08:22:44;;;;;;;10.90;2.10;;;;;;;6.88;100.00;101166.06;5052711;28;20051;-81
2022/12/26 08:25:09;;;;;;;10.90;2.38;;;;;;;6.86;100.00;101183.84;5053145;28;20108;-80
2022/12/26 08:27:35;;;;;;;7.88;2.00;;;;;;;6.82;100.00;101179.72;5051111;28;20094;-74
2022/12/26 08:30:00;;;;;;;8.00;1.60;;;;;;;6.78;100.00;101188.84;5052350;28;20083;-78
2022/12/26 08:32:26;;;;;;;11.68;1.83;;;;;;;6.75;100.00;101197.84;5052444;28;20053;-78
2022/12/26 08:34:51;;;;;;;10.23;1.75;;;;;;;6.69;100.00;101199.09;5052007;28;20029;-79
2022/12/26 08:37:17;;;;;;;9.73;1.88;;;;;;;6.67;100.00;101198.34;5052726;28;20045;-78
2022/12/26 08:39:42;;;;;;;7.55;1.30;;;;;;;6.61;100.00;101195.28;5052228;28;20461;-79
2022/12/26 08:42:08;;;;;;;15.25;2.30;;;;;;;6.60;100.00;101205.00;5052679;28;20071;-78
2022/12/26 08:44:33;;;;;;;13.85;2.25;;;;;;;6.60;100.00;101212.94;5052474;28;20037;-79
2022/12/26 08:46:58;;;;;;;19.77;2.58;;;;;;;6.58;100.00;101225.41;5052025;28;20469;-79
2022/12/26 08:49:24;;;;;;;22.77;2.92;;;;;;;6.50;100.00;101244.44;5053170;28;20384;-78
2022/12/26 08:51:49;;;;;;;21.05;3.10;;;;;;;6.46;100.00;101263.25;5052527;28;20561;-79
2022/12/26 08:54:14;;;;;;;19.35;3.03;;;;;;;6.37;100.00;101271.78;5030455;28;20037;-79
2022/12/26 08:56:40;;;;;;;11.70;2.33;;;;;;;6.26;100.00;101280.44;5029680;28;20112;-80
2022/12/26 08:59:05;;;;;;;9.73;2.20;;;;;;;6.14;100.00;101308.50;5030989;28;20037;-80
2022/12/26 09:01:30;;;;;;;16.92;1.90;;;;;;;6.09;100.00;101303.50;5030113;28;20041;-79
2022/12/26 09:04:01;;;;;;;10.45;1.95;;;;;;;6.00;100.00;101312.00;5033287;28;20470;-80
2022/12/26 09:06:27;;;;;;;14.47;1.93;;;;;;;5.94;100.00;101321.16;5030726;28;20055;-80
2022/12/26 09:09:00;;;;;;;11.10;1.88;;;;;;;5.90;100.00;101318.81;5030316;28;20278;-85
2022/12/26 09:11:26;;;;;;;9.70;1.65;;;;;;;5.86;100.00;101323.41;5029951;28;20038;-79
2022/12/26 09:13:52;;;;;;;11.65;1.83;;;;;;;5.82;100.00;101332.47;5029429;28;20037;-79
2022/12/26 09:16:21;;;;;;;10.85;1.73;;;;;;;5.73;100.00;101328.66;5029367;28;20045;-80
2022/12/26 09:18:47;;;;;;;18.73;1.92;;;;;;;5.73;100.00;101346.25;5029361;28;20108;-79
2022/12/26 09:21:14;;;;;;;10.27;1.60;;;;;;;5.65;100.00;101354.66;5028247;28;20466;-77
2022/12/26 09:23:41;;;;;;;7.63;1.75;;;;;;;5.56;100.00;101361.34;5029540;28;20065;-76
2022/12/26 09:26:12;;;;;;;10.40;1.70;;;;;;;5.46;100.00;101366.34;5029392;28;20034;-80
2022/12/26 09:28:38;;;;;;;7.72;1.85;;;;;;;5.43;100.00;101376.22;5028985;28;20509;-78
2022/12/26 09:31:07;;;;;;;20.10;2.22;;;;;;;5.46;100.00;101378.69;5028961;28;20056;-78
2022/12/26 09:33:36;;;;;;;8.18;1.83;;;;;;;5.49;100.00;101383.78;5029324;28;20061;-76
2022/12/26 09:36:07;;;;;;;7.32;1.42;;;;;;;5.55;100.00;101385.19;5029099;28;20401;-79
2022/12/26 09:38:33;;;;;;;8.88;1.90;;;;;;;5.57;100.00;101404.41;5029495;28;20065;-79
2022/12/26 09:41:34;;;;;;;11.15;2.05;;;;;;;5.48;100.00;101408.50;5031659;28;20072;-77
2022/12/26 09:43:59;;;;;;;20.95;1.98;;;;;;;5.41;100.00;101410.63;5032635;28;20077;-77
2022/12/26 09:47:07;;;;;;;10.60;2.13;;;;;;;5.32;100.00;101415.63;5032952;28;20064;-79
2022/12/26 09:49:58;;;;;;;12.55;2.13;;;;;;;5.28;100.00;101412.31;5029666;28;20045;-80
2022/12/26 09:52:37;;;;;;;13.45;2.42;;;;;;;5.24;100.00;101421.31;5029697;28;20041;-81
2022/12/26 09:55:25;;;;;;;14.23;3.35;;;;;;;5.25;100.00;101423.03;5032269;28;20359;-79
2022/12/26 09:57:52;;;;;;;7.82;1.92;;;;;;;5.23;100.00;101422.28;5021039;28;20041;-79
2022/12/26 10:00:21;;;;;;;9.00;2.28;;;;;;;5.20;100.00;101425.13;5032867;28;20076;-79
2022/12/26 10:02:55;;;;;;;14.00;2.30;;;;;;;5.15;100.00;101435.94;5032920;28;20033;-79
2022/12/26 10:05:24;;;;;;;10.57;2.13;;;;;;;5.14;100.00;101436.03;5032450;28;20788;-79
2022/12/26 10:08:22;;;;;;;14.25;2.10;;;;;;;5.16;100.00;101440.25;5031022;28;20045;-78
2022/12/26 10:10:59;;;;;;;12.00;1.90;;;;;;;5.33;100.00;101441.06;5033134;28;20061;-82
2022/12/26 10:13:31;;;;;;;9.30;1.50;;;;;;;5.45;100.00;101454.38;5033140;28;20029;-77
2022/12/26 10:16:04;;;;;;;12.25;2.45;;;;;;;5.58;100.00;101453.66;5030814;28;20037;-82
2022/12/26 10:18:57;;;;;;;11.95;1.88;;;;;;;5.69;100.00;101439.78;5032972;28;20037;-85
2022/12/26 10:21:51;;;;;;;12.82;2.17;;;;;;;5.84;100.00;101470.56;5032873;28;20045;-85
2022/12/26 10:24:24;;;;;;;9.48;1.48;;;;;;;5.89;100.00;101460.56;5032570;28;20034;-83
2022/12/26 10:26:54;;;;;;;13.70;1.88;;;;;;;5.86;100.00;101468.69;5032836;28;20159;-84
2022/12/26 10:29:25;;;;;;;14.38;1.50;;;;;;;5.74;100.00;101472.06;5032066;28;20508;-83
2022/12/26 10:31:56;;;;;;;9.02;1.58;;;;;;;5.61;100.00;101479.88;5032187;28;20057;-78
2022/12/26 10:34:34;;;;;;;7.88;1.55;;;;;;;5.72;100.00;101482.72;5032342;28;20036;-81
2022/12/26 10:37:31;;;;;;;11.35;1.75;;;;;;;5.94;100.00;101495.50;5030577;28;20041;-82
2022/12/26 10:40:11;;;;;;;8.07;1.75;;;;;;;5.87;100.00;101490.66;5031852;28;20031;-80
2022/12/26 10:42:51;;;;;;;5.85;1.35;;;;;;;5.77;100.00;101493.84;5032264;28;20413;-79
2022/12/26 10:45:26;;;;;;;13.00;2.03;;;;;;;5.75;100.00;101500.19;5031766;28;20037;-78
2022/12/26 10:47:52;;;;;;;10.02;1.63;;;;;;;5.79;100.00;101499.03;5032035;28;20031;-77
2022/12/26 10:50:23;;;;;;;8.45;1.85;;;;;;;5.81;100.00;101492.72;5031485;28;20052;-77
2022/12/26 10:52:49;;;;;;;12.00;2.03;;;;;;;5.86;100.00;101497.72;5030378;28;20371;-81
2022/12/26 10:55:18;;;;;;;10.05;2.15;;;;;;;5.94;100.00;101506.06;5034336;28;20187;-78
2022/12/26 10:57:49;;;;;;;5.10;1.52;;;;;;;5.85;100.00;101500.47;5044413;28;20037;-81
2022/12/26 11:00:20;;;;;;;6.35;1.67;;;;;;;5.76;100.00;101493.94;5052977;28;20033;-80
2022/12/26 11:03:20;;;;;;;8.70;2.22;;;;;;;5.56;100.00;101521.53;5053829;28;20021;-79
2022/12/26 11:05:51;;;;;;;10.07;1.88;;;;;;;5.45;100.00;101522.16;5053337;28;20041;-78
2022/12/26 11:08:36;;;;;;;8.50;1.55;;;;;;;5.51;100.00;101532.38;5052041;28;20033;-77
2022/12/26 11:11:07;;;;;;;9.05;1.40;;;;;;;5.73;100.00;101541.66;5052736;28;20035;-78
2022/12/26 11:13:39;;;;;;;10.23;1.40;;;;;;;5.95;100.00;101533.31;5053678;28;20059;-78
2022/12/26 11:16:06;;;;;;;3.22;1.15;;;;;;;6.20;100.00;101551.22;5053009;28;20076;-77
2022/12/26 11:18:47;;;;;;;6.28;1.58;;;;;;;6.33;100.00;101548.69;5053321;28;20052;-76
2022/12/26 11:21:18;;;;;;;8.70;1.67;;;;;;;6.40;100.00;101557.91;5053053;28;20039;-80
2022/12/26 11:23:45;;;;;;;7.85;1.65;;;;;;;6.34;100.00;101555.66;5053267;28;20035;-79
2022/12/26 11:26:19;;;;;;;15.40;1.88;;;;;;;6.28;100.00;101551.56;5052735;28;20033;-78
2022/12/26 11:28:45;;;;;;;4.00;1.10;;;;;;;6.32;100.00;101561.03;5051418;28;20478;-79
2022/12/26 11:31:25;;;;;;;6.82;1.55;;;;;;;6.30;100.00;101560.28;5052308;28;20036;-80
2022/12/26 11:33:51;;;;;;;10.63;1.60;;;;;;;6.35;100.00;101560.84;5053376;28;20025;-78
2022/12/26 11:36:24;;;;;;;4.30;1.15;;;;;;;6.56;100.00;101555.19;5052340;28;20482;-80
2022/12/26 11:38:59;;;;;;;6.25;1.13;;;;;;;6.88;100.00;101562.88;5052764;28;20033;-80
2022/12/26 11:41:30;;;;;;;11.52;1.70;;;;;;;6.98;100.00;101571.94;5052815;28;20071;-82
2022/12/26 11:44:15;;;;;;;13.20;1.45;;;;;;;7.13;100.00;101580.69;5052867;28;20057;-81
2022/12/26 11:47:00;;;;;;;3.63;1.27;;;;;;;7.13;100.00;101585.13;5052853;28;20036;-80
2022/12/26 11:49:40;;;;;;;5.15;1.55;;;;;;;7.12;100.00;101583.44;5048941;28;20060;-79
2022/12/26 11:52:38;;;;;;;9.50;1.45;;;;;;;6.96;100.00;101584.41;5052210;28;20060;-79
2022/12/26 11:55:22;;;;;;;9.20;1.77;;;;;;;6.80;100.00;101587.16;5052229;28;20025;-78
2022/12/26 11:58:08;;;;;;;5.40;1.35;;;;;;;6.60;100.00;101579.63;5052675;28;20438;-80
2022/12/26 12:00:36;;;;;;;8.98;1.85;;;;;;;6.46;100.00;101586.59;5052549;28;20043;-80
2022/12/26 12:03:31;;;;;;;6.97;1.50;;;;;;;6.45;100.00;101587.56;5051813;28;20091;-80
2022/12/26 12:06:02;;;;;;;7.85;1.30;;;;;;;6.49;100.00;101589.09;5051482;28;20041;-77
2022/12/26 12:08:27;;;;;;;16.75;1.63;;;;;;;6.48;100.00;101591.84;5052368;28;20025;-79
2022/12/26 12:11:11;;;;;;;7.20;2.17;;;;;;;6.12;100.00;101590.44;5052301;28;20485;-79
2022/12/26 12:13:39;;;;;;;8.05;1.02;;;;;;;6.00;100.00;101595.53;5052520;28;20036;-79
2022/12/26 12:16:38;;;;;;;6.25;1.40;;;;;;;6.18;100.00;101585.66;5052002;28;20103;-79
2022/12/26 12:19:27;;;;;;;6.85;1.40;;;;;;;6.04;100.00;101587.44;5051858;28;20029;-79
2022/12/26 12:22:00;;;;;;;6.50;1.20;;;;;;;5.77;100.00;101588.06;5052595;28;20057;-79
2022/12/26 12:24:49;;;;;;;7.25;1.77;;;;;;;5.53;100.00;101599.13;5051712;28;20111;-77
2022/12/26 12:27:36;;;;;;;9.25;1.33;;;;;;;5.76;100.00;101608.38;5051582;28;20024;-78
2022/12/26 12:30:11;;;;;;;6.93;1.30;;;;;;;6.20;100.00;101608.50;5052261;28;20033;-77
2022/12/26 12:32:52;;;;;;;3.92;1.40;;;;;;;6.94;100.00;101615.44;5051516;28;20064;-77
2022/12/26 12:35:23;;;;;;;7.13;1.27;;;;;;;7.25;100.00;101616.09;5051555;28;20069;-80
2022/12/26 12:38:13;;;;;;;9.05;1.75;;;;;;;7.29;100.00;101620.25;5056047;28;20040;-77
2022/12/26 12:41:09;;;;;;;7.05;1.30;;;;;;;7.49;100.00;101629.53;5049337;28;20039;-75
2022/12/26 12:44:03;;;;;;;6.53;1.23;;;;;;;7.51;100.00;101640.03;5049268;28;20075;-76
2022/12/26 12:46:28;;;;;;;7.72;1.35;;;;;;;6.98;100.00;101634.59;5048802;28;20037;-74
2022/12/26 12:49:23;;;;;;;6.28;1.30;;;;;;;6.48;100.00;101634.13;5049066;28;20386;-76
2022/12/26 12:52:11;;;;;;;4.60;1.00;;;;;;;6.34;100.00;101635.81;5048740;28;20028;-74
2022/12/26 12:55:02;;;;;;;7.50;1.50;;;;;;;6.20;100.00;101640.22;5048625;28;20033;-75
2022/12/26 12:57:55;;;;;;;3.72;0.98;;;;;;;7.08;100.00;101646.28;5048916;28;20123;-76
2022/12/26 13:00:46;;;;;;;8.60;1.45;;;;;;;8.32;100.00;101656.81;5055658;28;20036;-74
2022/12/26 13:03:33;;;;;;;8.88;1.35;;;;;;;9.82;79.37;101642.63;5049457;28;20025;-77
2022/12/26 13:06:07;;;;;;;8.57;1.13;;;;;;;9.65;67.81;101646.50;5049548;28;20063;-76
2022/12/26 13:08:57;;;;;;;7.95;1.20;;;;;;;9.08;70.39;101652.47;5049667;28;20041;-76
2022/12/26 13:11:36;;;;;;;6.50;1.77;;;;;;;8.61;73.92;101660.13;5049014;28;20029;-76
2022/12/26 13:14:06;;;;;;;4.95;1.25;;;;;;;8.72;71.77;101664.69;5048425;28;20481;-76
2022/12/26 13:16:42;;;;;;;9.07;1.63;;;;;;;8.33;74.89;101677.94;5052100;28;20024;-77
2022/12/26 13:19:18;;;;;;;6.70;1.15;;;;;;;7.43;80.58;101661.72;5053015;28;20052;-76
2022/12/26 13:21:47;;;;;;;15.15;2.03;;;;;;;7.22;90.49;101664.78;5052826;28;20040;-76
2022/12/26 13:24:39;;;;;;;9.15;1.45;;;;;;;6.93;91.33;101660.50;5052383;28;20063;-76
2022/12/26 13:27:22;;;;;;;5.00;1.00;;;;;;;6.84;93.96;101669.84;5052474;28;20104;-77
2022/12/26 13:29:49;;;;;;;8.07;1.35;;;;;;;6.39;95.02;101672.53;5052785;28;20091;-77
2022/12/26 13:32:25;;;;;;;9.50;1.17;;;;;;;6.20;100.00;101672.78;5051623;28;20517;-81
2022/12/26 13:34:53;;;;;;;11.05;1.55;;;;;;;6.27;98.44;101676.75;5052721;28;20048;-78
2022/12/26 13:37:54;;;;;;;5.25;1.05;;;;;;;6.26;99.06;101679.50;5052162;28;20128;-78
2022/12/26 13:40:26;;;;;;;8.98;1.98;;;;;;;6.32;100.00;101684.41;5051769;28;20037;-83
2022/12/26 13:45:58;;;;;;;8.75;1.40;;;;;;;6.03;100.00;101686.13;5052216;28;20055;-81